createdAt,value
2018-12-15T00:01:48.604Z,2.80
2018-12-15T00:04:15.603Z,2.80
2018-12-15T00:06:42.568Z,2.80
2018-12-15T00:09:09.624Z,2.80
2018-12-15T00:11:36.627Z,2.80
2018-12-15T00:14:03.824Z,2.90
2018-12-15T00:16:30.844Z,2.90
2018-12-15T00:18:57.884Z,2.90
2018-12-15T00:21:24.867Z,2.90
2018-12-15T00:23:51.844Z,2.90
2018-12-15T00:26:18.844Z,3.00
2018-12-15T00:28:45.824Z,2.90
2018-12-15T00:31:19.763Z,2.90
2018-12-15T00:33:46.744Z,2.90
2018-12-15T00:36:13.701Z,2.90
2018-12-15T00:38:40.704Z,2.90
2018-12-15T00:41:07.686Z,3.00
2018-12-15T00:43:34.704Z,3.00
2018-12-15T00:46:01.704Z,3.00
2018-12-15T00:48:28.765Z,3.00
2018-12-15T00:50:55.763Z,3.00
2018-12-15T00:53:22.745Z,3.00
2018-12-15T00:55:49.786Z,3.00
2018-12-15T00:58:16.725Z,2.90
2018-12-15T01:00:43.664Z,3.00
2018-12-15T01:03:10.745Z,3.00
2018-12-15T01:05:37.704Z,3.00
2018-12-15T01:08:04.705Z,3.00
2018-12-15T01:10:31.745Z,3.00
2018-12-15T01:12:58.725Z,3.00
2018-12-15T01:15:31.665Z,3.00
2018-12-15T01:17:58.605Z,3.00
2018-12-15T01:20:25.625Z,3.00
2018-12-15T01:22:52.605Z,3.00
2018-12-15T01:25:19.525Z,3.00
2018-12-15T01:27:46.459Z,3.00
2018-12-15T01:30:13.525Z,3.00
2018-12-15T01:32:40.528Z,3.00
2018-12-15T01:35:14.547Z,3.10
2018-12-15T01:37:41.485Z,3.10
2018-12-15T01:40:08.485Z,3.10
2018-12-15T01:42:35.525Z,3.20
2018-12-15T01:45:03.245Z,3.10
2018-12-15T01:47:30.245Z,3.20
2018-12-15T01:49:57.185Z,3.20
2018-12-15T01:52:24.246Z,3.20
2018-12-15T01:54:51.261Z,3.10
2018-12-15T01:57:25.571Z,3.10
2018-12-15T01:59:52.531Z,3.10
2018-12-15T02:02:19.552Z,3.10
2018-12-15T02:04:46.632Z,3.10
2018-12-15T02:07:13.652Z,3.10
2018-12-15T02:09:40.651Z,3.10
2018-12-15T02:12:07.593Z,3.10
2018-12-15T02:14:34.532Z,3.10
2018-12-15T02:17:01.622Z,3.10
2018-12-15T02:19:28.651Z,3.10
2018-12-15T02:21:55.631Z,3.10
2018-12-15T02:24:22.571Z,3.20
2018-12-15T02:26:49.632Z,3.10
2018-12-15T02:29:23.634Z,3.20
2018-12-15T02:31:50.732Z,3.10
2018-12-15T02:34:17.691Z,3.10
2018-12-15T02:36:44.752Z,3.10
2018-12-15T02:39:11.972Z,3.10
2018-12-15T02:41:38.993Z,3.00
2018-12-15T02:44:05.893Z,3.10
2018-12-15T02:46:32.911Z,3.10
2018-12-15T02:48:59.873Z,3.20
2018-12-15T02:51:26.933Z,3.10
2018-12-15T02:53:54.073Z,3.10
2018-12-15T02:56:21.073Z,3.10
2018-12-15T02:58:48.011Z,3.10
2018-12-15T03:01:15.032Z,3.10
2018-12-15T03:03:41.971Z,3.10
2018-12-15T03:06:08.832Z,3.20
2018-12-15T03:08:35.971Z,3.10
2018-12-15T03:11:02.992Z,3.20
2018-12-15T03:13:29.973Z,3.20
2018-12-15T03:15:57.732Z,3.30
2018-12-15T03:18:24.672Z,3.20
2018-12-15T03:21:00.428Z,3.20
2018-12-15T03:23:27.451Z,3.30
2018-12-15T03:25:54.412Z,3.30
2018-12-15T03:28:21.411Z,3.30
2018-12-15T03:30:48.433Z,3.30
2018-12-15T03:33:15.435Z,3.40
2018-12-15T03:35:42.432Z,3.20
2018-12-15T03:38:09.511Z,3.20
2018-12-15T03:40:36.451Z,3.20
2018-12-15T03:43:03.452Z,3.20
2018-12-15T03:45:30.432Z,3.10
2018-12-15T03:48:04.394Z,3.10
2018-12-15T03:50:31.572Z,3.10
2018-12-15T03:52:58.672Z,3.10
2018-12-15T03:55:25.892Z,3.10
2018-12-15T03:57:52.901Z,3.10
2018-12-15T04:00:19.872Z,3.10
2018-12-15T04:02:46.832Z,3.10
2018-12-15T04:05:14.192Z,3.10
2018-12-15T04:07:41.251Z,3.00
2018-12-15T04:10:08.271Z,3.00
2018-12-15T04:12:35.233Z,3.00
2018-12-15T04:15:02.634Z,3.10
2018-12-15T04:17:29.594Z,3.10
2018-12-15T04:19:56.575Z,3.00
2018-12-15T04:22:23.575Z,3.10
2018-12-15T04:24:50.582Z,3.10
2018-12-15T04:27:17.528Z,3.00
2018-12-15T04:29:44.417Z,3.00
2018-12-15T04:32:11.455Z,3.00
2018-12-15T04:34:38.456Z,2.90
2018-12-15T04:37:05.395Z,2.90
2018-12-15T04:39:32.394Z,3.10
2018-12-15T04:41:59.336Z,3.00
2018-12-15T04:44:26.355Z,3.00
2018-12-15T04:46:53.615Z,2.90
2018-12-15T04:49:20.736Z,3.00
2018-12-15T04:51:54.757Z,2.90
2018-12-15T04:54:21.756Z,3.00
2018-12-15T04:56:48.745Z,3.00
2018-12-15T04:59:15.794Z,3.00
2018-12-15T05:01:42.782Z,3.10
2018-12-15T05:04:09.795Z,3.00
2018-12-15T05:06:43.594Z,3.00
2018-12-15T05:09:10.655Z,3.10
2018-12-15T05:11:37.698Z,3.00
2018-12-15T05:14:04.773Z,3.10
2018-12-15T05:16:31.815Z,3.10
2018-12-15T05:18:58.930Z,3.10
2018-12-15T05:21:25.875Z,3.10
2018-12-15T05:23:59.835Z,3.10
2018-12-15T05:26:26.774Z,3.00
2018-12-15T05:28:53.795Z,3.10
2018-12-15T05:31:20.754Z,3.00
2018-12-15T05:33:47.834Z,3.10
2018-12-15T05:36:15.416Z,3.00
2018-12-15T05:38:42.561Z,3.10
2018-12-15T05:41:09.554Z,3.10
2018-12-15T05:43:36.574Z,3.10
2018-12-15T05:46:03.575Z,3.10
2018-12-15T05:48:30.575Z,3.10
2018-12-15T05:50:57.679Z,3.00
2018-12-15T05:53:24.857Z,3.00
2018-12-15T05:55:51.895Z,3.00
2018-12-15T05:58:18.935Z,3.00
2018-12-15T06:00:45.955Z,3.00
2018-12-15T06:03:12.914Z,3.10
2018-12-15T06:05:47.035Z,3.20
2018-12-15T06:08:14.254Z,3.10
2018-12-15T06:10:41.235Z,3.10
2018-12-15T06:13:08.236Z,2.90
2018-12-15T06:15:35.235Z,2.90
2018-12-15T06:18:02.856Z,3.00
2018-12-15T06:20:30.735Z,2.80
2018-12-15T06:22:57.734Z,2.80
2018-12-15T06:25:24.656Z,2.80
2018-12-15T06:27:52.731Z,2.80
2018-12-15T06:30:19.731Z,2.70
2018-12-15T06:32:46.671Z,2.60
2018-12-15T06:35:13.692Z,2.60
2018-12-15T06:37:40.870Z,2.60
2018-12-15T06:40:07.891Z,2.50
2018-12-15T06:42:34.929Z,2.60
2018-12-15T06:45:01.915Z,2.60
2018-12-15T06:47:29.051Z,2.60
2018-12-15T06:49:55.934Z,2.60
2018-12-15T06:52:22.991Z,2.60
2018-12-15T06:54:50.050Z,2.70
2018-12-15T06:57:17.033Z,2.70
2018-12-15T06:59:44.230Z,2.80
2018-12-15T07:02:11.190Z,2.70
2018-12-15T07:04:38.130Z,2.80
2018-12-15T07:07:04.991Z,2.80
2018-12-15T07:09:31.930Z,2.80
2018-12-15T07:11:59.069Z,2.90
2018-12-15T07:14:26.010Z,2.90
2018-12-15T07:16:52.969Z,2.90
2018-12-15T07:19:20.000Z,2.90
2018-12-15T07:21:47.021Z,3.00
2018-12-15T07:24:14.066Z,3.10
2018-12-15T07:26:41.026Z,3.10
2018-12-15T07:29:08.187Z,3.20
2018-12-15T07:31:45.207Z,3.30
2018-12-15T07:34:12.267Z,3.20
2018-12-15T07:36:39.206Z,3.20
2018-12-15T07:39:07.326Z,3.30
2018-12-15T07:41:34.487Z,3.40
2018-12-15T07:44:01.506Z,3.40
2018-12-15T07:46:28.466Z,3.40
2018-12-15T07:48:55.487Z,3.40
2018-12-15T07:51:28.606Z,3.40
2018-12-15T07:53:57.825Z,3.30
2018-12-15T07:56:25.926Z,3.50
2018-12-15T07:58:52.887Z,3.60
2018-12-15T08:01:19.690Z,3.50
2018-12-15T08:03:46.707Z,3.70
2018-12-15T08:06:15.247Z,3.60
2018-12-15T08:08:42.247Z,3.60
2018-12-15T08:11:15.767Z,3.40
2018-12-15T08:13:50.867Z,3.40
2018-12-15T08:16:23.947Z,3.50
2018-12-15T08:18:51.047Z,3.50
2018-12-15T08:21:18.287Z,3.30
2018-12-15T08:23:45.247Z,3.30
2018-12-15T08:26:12.207Z,3.50
2018-12-15T08:28:46.147Z,3.50
2018-12-15T08:31:13.087Z,3.60
2018-12-15T08:33:39.907Z,3.60
2018-12-15T08:36:06.911Z,3.80
2018-12-15T08:38:33.989Z,3.80
2018-12-15T08:41:00.889Z,3.80
2018-12-15T08:43:27.848Z,3.80
2018-12-15T08:45:55.528Z,3.80
2018-12-15T08:48:22.506Z,3.80
2018-12-15T08:50:49.871Z,3.90
2018-12-15T08:53:16.848Z,4.00
2018-12-15T08:55:43.847Z,4.00
2018-12-15T08:58:10.987Z,4.10
2018-12-15T09:00:37.947Z,4.20
2018-12-15T09:03:05.227Z,4.10
2018-12-15T09:05:32.247Z,4.10
2018-12-15T09:07:59.228Z,4.30
2018-12-15T09:10:26.427Z,4.50
2018-12-15T09:12:53.408Z,4.40
2018-12-15T09:15:21.213Z,4.50
2018-12-15T09:17:48.190Z,4.60
2018-12-15T09:20:15.187Z,4.60
2018-12-15T09:22:42.187Z,4.40
2018-12-15T09:25:09.208Z,4.60
2018-12-15T09:27:36.763Z,4.50
2018-12-15T09:30:06.067Z,4.50
2018-12-15T09:32:33.146Z,4.30
2018-12-15T09:35:00.153Z,4.50
2018-12-15T09:37:27.106Z,4.60
2018-12-15T09:39:54.407Z,4.70
2018-12-15T09:42:21.346Z,4.70
2018-12-15T09:44:48.650Z,4.70
2018-12-15T09:47:15.791Z,4.70
2018-12-15T09:49:42.831Z,4.50
2018-12-15T09:52:09.874Z,4.40
2018-12-15T09:54:36.992Z,4.60
2018-12-15T09:57:04.412Z,4.70
2018-12-15T09:59:31.739Z,4.70
2018-12-15T10:01:58.799Z,4.90
2018-12-15T10:04:25.820Z,5.10
2018-12-15T10:06:53.258Z,4.80
2018-12-15T10:09:20.547Z,5.00
2018-12-15T10:11:47.589Z,4.80
2018-12-15T10:14:14.573Z,5.10
2018-12-15T10:16:41.613Z,5.20
2018-12-15T10:19:08.652Z,5.00
2018-12-15T10:21:35.695Z,5.00
2018-12-15T10:24:03.210Z,5.20
2018-12-15T10:26:30.230Z,5.00
2018-12-15T10:28:57.649Z,5.20
2018-12-15T10:34:25.388Z,5.20
2018-12-15T10:36:59.389Z,5.20
2018-12-15T10:39:26.549Z,5.20
2018-12-15T10:41:53.468Z,5.30
2018-12-15T10:44:20.729Z,5.50
2018-12-15T10:46:48.148Z,5.50
2018-12-15T10:49:15.132Z,5.60
2018-12-15T10:51:42.173Z,5.80
2018-12-15T10:54:09.175Z,5.60
2018-12-15T10:56:36.154Z,5.70
2018-12-15T10:59:03.255Z,5.60
2018-12-15T11:01:30.633Z,5.50
2018-12-15T11:04:00.744Z,5.40
2018-12-15T11:06:26.815Z,5.50
2018-12-15T11:08:53.674Z,5.50
2018-12-15T11:11:20.675Z,5.70
2018-12-15T11:13:47.651Z,5.50
2018-12-15T11:16:14.756Z,5.70
2018-12-15T11:18:41.636Z,5.70
2018-12-15T11:21:08.637Z,5.60
2018-12-15T11:23:35.669Z,5.60
2018-12-15T11:26:02.669Z,5.60
2018-12-15T11:28:29.718Z,5.60
2018-12-15T11:30:56.669Z,5.50
2018-12-15T11:33:23.691Z,5.50
2018-12-15T11:35:50.694Z,5.70
2018-12-15T11:38:17.997Z,5.60
2018-12-15T11:40:45.099Z,5.30
2018-12-15T11:43:12.145Z,5.50
2018-12-15T11:45:39.226Z,5.30
2018-12-15T11:48:06.171Z,5.40
2018-12-15T11:50:33.190Z,5.50
2018-12-15T11:53:00.192Z,5.60
2018-12-15T11:55:27.276Z,5.40
2018-12-15T11:57:54.771Z,5.60
2018-12-15T12:00:21.794Z,5.60
2018-12-15T12:02:48.750Z,5.70
2018-12-15T12:05:15.943Z,5.50
2018-12-15T12:07:42.932Z,5.50
2018-12-15T12:10:10.241Z,5.50
2018-12-15T12:12:37.313Z,5.40
2018-12-15T12:15:05.160Z,5.30
2018-12-15T12:17:32.128Z,5.30
2018-12-15T12:19:59.008Z,5.40
2018-12-15T12:22:32.979Z,5.20
2018-12-15T12:25:00.025Z,5.30
2018-12-15T12:27:26.958Z,5.20
2018-12-15T12:29:53.974Z,5.20
2018-12-15T12:32:21.218Z,5.20
2018-12-15T12:34:48.200Z,4.90
2018-12-15T12:37:15.151Z,5.10
2018-12-15T12:39:42.126Z,5.00
2018-12-15T12:42:16.112Z,5.10
2018-12-15T12:44:43.085Z,5.10
2018-12-15T12:47:10.163Z,5.10
2018-12-15T12:49:37.049Z,5.00
2018-12-15T12:52:04.031Z,5.10
2018-12-15T12:54:30.890Z,4.90
2018-12-15T12:56:58.091Z,4.90
2018-12-15T12:59:25.085Z,5.10
2018-12-15T13:01:51.837Z,5.20
2018-12-15T13:04:19.356Z,5.30
2018-12-15T13:06:46.374Z,5.30
2018-12-15T13:09:13.514Z,5.30
2018-12-15T13:11:40.935Z,5.40
2018-12-15T13:14:08.007Z,5.40
2018-12-15T13:16:35.028Z,5.50
2018-12-15T13:19:02.053Z,5.40
2018-12-15T13:21:29.093Z,5.50
2018-12-15T13:23:56.161Z,5.30
2018-12-15T13:26:23.212Z,5.40
2018-12-15T13:28:50.132Z,5.50
2018-12-15T13:31:17.153Z,5.30
2018-12-15T13:33:44.172Z,5.20
2018-12-15T13:36:12.693Z,5.20
2018-12-15T13:38:40.213Z,5.30
2018-12-15T13:41:07.453Z,5.20
2018-12-15T13:43:34.573Z,5.30
2018-12-15T13:46:01.708Z,5.10
2018-12-15T13:48:28.672Z,5.10
2018-12-15T13:50:55.691Z,5.10
2018-12-15T13:53:22.723Z,5.10
2018-12-15T13:55:49.671Z,5.00
2018-12-15T13:58:16.613Z,5.00
2018-12-15T14:00:43.653Z,5.00
2018-12-15T14:03:10.592Z,5.00
2018-12-15T14:05:37.671Z,5.00
2018-12-15T14:08:05.031Z,5.10
2018-12-15T14:10:31.873Z,5.00
2018-12-15T14:12:58.757Z,5.00
2018-12-15T14:15:25.707Z,5.00
2018-12-15T14:17:52.946Z,5.00
2018-12-15T14:20:19.900Z,5.00
2018-12-15T14:22:47.361Z,5.10
2018-12-15T14:25:14.712Z,5.00
2018-12-15T14:27:41.616Z,5.00
2018-12-15T14:30:08.692Z,5.00
2018-12-15T14:32:35.660Z,5.00
2018-12-15T14:35:03.725Z,4.90
2018-12-15T14:37:30.769Z,5.00
2018-12-15T14:39:57.891Z,4.90
2018-12-15T14:42:24.953Z,4.90
2018-12-15T14:44:51.949Z,4.80
2018-12-15T14:47:19.069Z,4.90
2018-12-15T14:49:53.143Z,4.80
2018-12-15T14:52:20.123Z,4.90
2018-12-15T14:54:47.167Z,4.90
2018-12-15T14:57:16.154Z,4.80
2018-12-15T14:59:43.225Z,4.80
2018-12-15T15:02:17.594Z,4.70
2018-12-15T15:04:45.013Z,4.60
2018-12-15T15:07:12.038Z,4.60
2018-12-15T15:09:38.993Z,4.50
2018-12-15T15:12:05.909Z,4.50
2018-12-15T15:14:32.980Z,4.50
2018-12-15T15:16:59.971Z,4.30
2018-12-15T15:19:27.129Z,4.30
2018-12-15T15:21:54.005Z,4.40
2018-12-15T15:24:21.866Z,4.30
2018-12-15T15:26:48.967Z,4.10
2018-12-15T15:29:15.881Z,4.20
2018-12-15T15:31:43.116Z,4.10
2018-12-15T15:34:10.121Z,4.10
2018-12-15T15:36:37.181Z,4.10
2018-12-15T15:39:06.360Z,4.00
2018-12-15T15:41:33.301Z,4.00
2018-12-15T15:44:00.300Z,4.00
2018-12-15T15:46:28.505Z,3.80
2018-12-15T15:48:55.505Z,4.00
2018-12-15T15:51:24.235Z,3.90
2018-12-15T15:53:51.464Z,3.90
2018-12-15T15:56:18.446Z,3.90
2018-12-15T15:58:45.385Z,3.80
2018-12-15T16:01:12.325Z,3.90
2018-12-15T16:03:39.547Z,3.80
2018-12-15T16:06:06.592Z,3.80
2018-12-15T16:08:33.905Z,3.70
2018-12-15T16:11:00.985Z,3.80
2018-12-15T16:13:27.995Z,3.90
2018-12-15T16:15:55.335Z,3.90
2018-12-15T16:18:22.305Z,3.80
2018-12-15T16:20:49.252Z,3.80
2018-12-15T16:23:16.274Z,3.80
2018-12-15T16:25:43.274Z,3.80
2018-12-15T16:28:10.233Z,3.90
2018-12-15T16:30:37.240Z,3.70
2018-12-15T16:33:11.223Z,3.80
2018-12-15T16:35:38.259Z,3.70
2018-12-15T16:38:05.164Z,3.70
2018-12-15T16:40:39.239Z,3.80
2018-12-15T16:43:06.372Z,3.70
2018-12-15T16:45:33.494Z,3.70
2018-12-15T16:48:00.448Z,3.70
2018-12-15T16:50:27.974Z,3.60
2018-12-15T16:52:55.234Z,3.70
2018-12-15T16:55:22.238Z,3.70
2018-12-15T16:57:49.206Z,3.70
2018-12-15T17:00:16.166Z,3.70
2018-12-15T17:02:43.199Z,3.70
2018-12-15T17:05:10.299Z,3.60
2018-12-15T17:07:37.338Z,3.60
2018-12-15T17:10:06.219Z,3.60
2018-12-15T17:12:33.737Z,3.60
2018-12-15T17:15:00.698Z,3.60
2018-12-15T17:17:27.638Z,3.60
2018-12-15T17:19:54.861Z,3.60
2018-12-15T17:22:21.798Z,3.50
2018-12-15T17:24:49.038Z,3.60
2018-12-15T17:27:27.058Z,3.40
2018-12-15T17:29:54.581Z,3.40
2018-12-15T17:32:21.580Z,3.40
2018-12-15T17:34:48.623Z,3.40
2018-12-15T17:37:15.659Z,3.30
2018-12-15T17:39:42.679Z,3.40
2018-12-15T17:42:09.673Z,3.40
2018-12-15T17:44:36.631Z,3.40
2018-12-15T17:47:03.671Z,3.40
2018-12-15T17:49:30.592Z,3.40
2018-12-15T17:51:57.652Z,3.30
2018-12-15T17:54:24.632Z,3.30
2018-12-15T17:56:51.711Z,3.40
2018-12-15T17:59:18.690Z,3.30
2018-12-15T18:01:45.731Z,3.40
2018-12-15T18:04:12.671Z,3.30
2018-12-15T18:06:39.595Z,3.30
2018-12-15T18:09:06.951Z,3.30
2018-12-15T18:11:33.932Z,3.40
2018-12-15T18:14:00.893Z,3.30
2018-12-15T18:16:27.851Z,3.30
2018-12-15T18:18:55.192Z,3.30
2018-12-15T18:21:22.171Z,3.20
2018-12-15T18:23:49.112Z,3.20
2018-12-15T18:26:16.451Z,3.20
2018-12-15T18:28:43.451Z,3.20
2018-12-15T18:31:10.431Z,3.10
2018-12-15T18:33:44.383Z,3.10
2018-12-15T18:36:11.211Z,3.20
2018-12-15T18:38:38.459Z,3.10
2018-12-15T18:41:05.498Z,3.10
2018-12-15T18:43:32.578Z,3.00
2018-12-15T18:45:59.526Z,3.10
2018-12-15T18:48:26.604Z,3.10
2018-12-15T18:50:53.598Z,3.10
2018-12-15T18:53:20.477Z,3.10
2018-12-15T18:55:47.410Z,3.10
2018-12-15T18:58:14.354Z,3.10
2018-12-15T19:00:41.376Z,3.20
2018-12-15T19:03:08.433Z,3.30
2018-12-15T19:05:36.092Z,3.30
2018-12-15T19:08:10.013Z,3.40
2018-12-15T19:10:37.461Z,3.40
2018-12-15T19:13:04.518Z,3.30
2018-12-15T19:15:31.482Z,3.30
2018-12-15T19:17:58.743Z,3.40
2018-12-15T19:20:25.701Z,3.40
2018-12-15T19:22:52.662Z,3.40
2018-12-15T19:25:19.741Z,3.30
2018-12-15T19:27:46.702Z,3.30
2018-12-15T19:30:13.742Z,3.20
2018-12-15T19:32:47.681Z,3.30
2018-12-15T19:35:14.741Z,3.30
2018-12-15T19:37:41.721Z,3.20
2018-12-15T19:40:08.679Z,3.20
2018-12-15T19:42:35.706Z,3.20
2018-12-15T19:45:03.781Z,3.20
2018-12-15T19:47:30.761Z,3.20
2018-12-15T19:49:57.763Z,3.20
2018-12-15T19:52:24.783Z,3.20
2018-12-15T19:54:51.982Z,3.20
2018-12-15T19:57:18.941Z,3.20
2018-12-15T19:59:45.950Z,3.20
2018-12-15T20:02:15.858Z,3.20
2018-12-15T20:04:42.878Z,3.30
2018-12-15T20:07:09.860Z,3.20
2018-12-15T20:09:36.878Z,3.20
2018-12-15T20:12:03.978Z,3.10
2018-12-15T20:14:30.939Z,3.10
2018-12-15T20:16:57.901Z,3.10
2018-12-15T20:19:25.198Z,3.10
2018-12-15T20:21:52.118Z,3.20
2018-12-15T20:24:19.137Z,3.10
2018-12-15T20:26:46.138Z,3.10
2018-12-15T20:29:13.181Z,3.10
2018-12-15T20:31:40.180Z,3.20
2018-12-15T20:34:07.179Z,3.20
2018-12-15T20:36:34.158Z,3.00
2018-12-15T20:39:01.199Z,3.00
2018-12-15T20:41:29.118Z,3.00
2018-12-15T20:43:56.098Z,3.20
2018-12-15T20:46:24.148Z,3.10
2018-12-15T20:48:51.457Z,3.10
2018-12-15T20:51:18.458Z,3.10
2018-12-15T20:53:45.387Z,3.00
2018-12-15T20:56:12.399Z,3.00
2018-12-15T20:58:39.438Z,3.10
2018-12-15T21:01:06.539Z,3.10
2018-12-15T21:03:33.499Z,3.10
2018-12-15T21:06:01.538Z,3.10
2018-12-15T21:08:28.618Z,2.90
2018-12-15T21:10:56.138Z,3.00
2018-12-15T21:13:23.400Z,2.80
2018-12-15T21:15:53.098Z,2.70
2018-12-15T21:18:20.619Z,2.70
2018-12-15T21:20:48.418Z,2.60
2018-12-15T21:23:15.499Z,2.50
2018-12-15T21:25:42.499Z,2.50
2018-12-15T21:28:09.479Z,2.40
2018-12-15T21:30:36.539Z,2.30
2018-12-15T21:33:03.761Z,2.30
2018-12-15T21:35:30.744Z,2.20
2018-12-15T21:37:57.759Z,2.10
2018-12-15T21:40:24.800Z,2.10
2018-12-15T21:42:51.740Z,2.10
2018-12-15T21:45:18.760Z,1.90
2018-12-15T21:47:45.758Z,1.90
2018-12-15T21:50:12.721Z,1.90
2018-12-15T21:52:39.793Z,1.80
2018-12-15T21:55:06.833Z,1.70
2018-12-15T21:57:33.832Z,1.60
2018-12-15T22:00:00.835Z,1.60
2018-12-15T22:02:28.496Z,1.50
2018-12-15T22:04:55.693Z,1.50
2018-12-15T22:07:23.174Z,1.40
2018-12-15T22:09:50.273Z,1.30
2018-12-15T22:12:17.332Z,1.20
2018-12-15T22:14:44.634Z,1.20
2018-12-15T22:17:18.613Z,1.00
2018-12-15T22:19:45.612Z,0.90
2018-12-15T22:22:12.613Z,0.80
2018-12-15T22:24:40.020Z,0.70
2018-12-15T22:27:07.016Z,0.60
2018-12-15T22:29:34.032Z,0.50
2018-12-15T22:32:01.564Z,0.40
2018-12-15T22:34:28.542Z,0.30
2018-12-15T22:36:55.623Z,0.20
2018-12-15T22:39:22.601Z,0.10
2018-12-15T22:41:49.601Z,0.00
2018-12-15T22:44:16.522Z,-0.10
2018-12-15T22:46:43.583Z,-0.20
2018-12-15T22:49:10.540Z,-0.20
2018-12-15T22:51:37.582Z,-0.30
2018-12-15T22:54:04.561Z,-0.40
2018-12-15T22:56:31.502Z,-0.50
2018-12-15T22:58:58.481Z,-0.60
2018-12-15T23:01:25.741Z,-0.70
2018-12-15T23:03:52.861Z,-0.70
2018-12-15T23:06:19.821Z,-0.80
2018-12-15T23:08:46.820Z,-0.90
2018-12-15T23:11:20.761Z,-1.00
2018-12-15T23:13:47.820Z,-1.00
2018-12-15T23:16:14.801Z,-1.10
2018-12-15T23:18:41.860Z,-1.20
2018-12-15T23:21:08.882Z,-1.30
2018-12-15T23:23:35.921Z,-1.30
2018-12-15T23:26:02.900Z,-1.40
2018-12-15T23:28:29.864Z,-1.50
2018-12-15T23:30:56.822Z,-1.50
2018-12-15T23:33:23.881Z,-1.50
2018-12-15T23:35:50.861Z,-1.70
2018-12-15T23:38:17.882Z,-1.70
2018-12-15T23:40:44.840Z,-1.70
2018-12-15T23:43:11.903Z,-1.80
2018-12-15T23:45:38.941Z,-1.90
2018-12-15T23:48:05.981Z,-1.80
2018-12-15T23:50:33.241Z,-1.80
2018-12-15T23:53:00.200Z,-1.90
2018-12-15T23:55:34.641Z,-2.00
2018-12-15T23:58:01.599Z,-2.00
